sensor_id;sensor_type;location;lat;lon;timestamp;temperature;humidity
530;DHT22;251;48.704;9.210;2023-04-29T00:00:07;9.70;99.90
530;DHT22;251;48.704;9.210;2023-04-29T00:02:38;9.30;99.90
530;DHT22;251;48.704;9.210;2023-04-29T00:05:05;9.80;99.90
530;DHT22;251;48.704;9.210;2023-04-29T00:07:32;9.80;99.90
530;DHT22;251;48.704;9.210;2023-04-29T00:09:59;9.50;99.90
530;DHT22;251;48.704;9.210;2023-04-29T00:12:26;9.50;99.90
530;DHT22;251;48.704;9.210;2023-04-29T00:14:56;9.20;99.90
530;DHT22;251;48.704;9.210;2023-04-29T00:17:22;9.30;99.90
530;DHT22;251;48.704;9.210;2023-04-29T00:19:49;9.60;99.90
530;DHT22;251;48.704;9.210;2023-04-29T00:22:16;9.20;99.90
530;DHT22;251;48.704;9.210;2023-04-29T00:24:43;9.40;99.90
530;DHT22;251;48.704;9.210;2023-04-29T00:27:10;9.40;99.90
530;DHT22;251;48.704;9.210;2023-04-29T00:29:37;9.20;99.90
530;DHT22;251;48.704;9.210;2023-04-29T00:32:05;9.40;99.90
530;DHT22;251;48.704;9.210;2023-04-29T00:34:32;9.30;99.90
530;DHT22;251;48.704;9.210;2023-04-29T00:36:59;9.30;99.90
530;DHT22;251;48.704;9.210;2023-04-29T00:39:26;9.20;99.90
530;DHT22;251;48.704;9.210;2023-04-29T00:41:52;9.10;99.90
530;DHT22;251;48.704;9.210;2023-04-29T00:44:19;9.20;99.90
530;DHT22;251;48.704;9.210;2023-04-29T00:46:46;9.30;99.90
530;DHT22;251;48.704;9.210;2023-04-29T00:49:15;9.20;99.90
530;DHT22;251;48.704;9.210;2023-04-29T00:51:41;9.20;99.90
530;DHT22;251;48.704;9.210;2023-04-29T00:54:10;9.30;99.90
530;DHT22;251;48.704;9.210;2023-04-29T00:56:38;9.30;99.90
530;DHT22;251;48.704;9.210;2023-04-29T00:59:06;9.20;99.90
530;DHT22;251;48.704;9.210;2023-04-29T01:01:35;9.20;99.90
530;DHT22;251;48.704;9.210;2023-04-29T01:04:04;9.20;99.90
530;DHT22;251;48.704;9.210;2023-04-29T01:06:42;9.30;99.90
530;DHT22;251;48.704;9.210;2023-04-29T01:09:22;9.20;99.90
530;DHT22;251;48.704;9.210;2023-04-29T01:11:57;9.20;99.90
530;DHT22;251;48.704;9.210;2023-04-29T01:14:29;9.20;99.90
530;DHT22;251;48.704;9.210;2023-04-29T01:16:59;8.80;99.90
530;DHT22;251;48.704;9.210;2023-04-29T01:19:39;8.90;99.90
530;DHT22;251;48.704;9.210;2023-04-29T01:22:11;9.00;99.90
530;DHT22;251;48.704;9.210;2023-04-29T01:24:40;8.80;99.90
530;DHT22;251;48.704;9.210;2023-04-29T01:27:15;8.80;99.90
530;DHT22;251;48.704;9.210;2023-04-29T01:29:52;8.90;99.90
530;DHT22;251;48.704;9.210;2023-04-29T01:32:39;9.00;99.90
530;DHT22;251;48.704;9.210;2023-04-29T01:35:21;8.80;99.90
530;DHT22;251;48.704;9.210;2023-04-29T01:37:56;8.90;99.90
530;DHT22;251;48.704;9.210;2023-04-29T01:40:33;8.70;99.90
530;DHT22;251;48.704;9.210;2023-04-29T01:43:11;8.80;99.90
530;DHT22;251;48.704;9.210;2023-04-29T01:45:43;8.80;99.90
530;DHT22;251;48.704;9.210;2023-04-29T01:48:12;8.80;99.90
530;DHT22;251;48.704;9.210;2023-04-29T01:50:39;8.80;99.90
530;DHT22;251;48.704;9.210;2023-04-29T01:53:10;8.50;99.90
530;DHT22;251;48.704;9.210;2023-04-29T01:55:39;8.50;99.90
530;DHT22;251;48.704;9.210;2023-04-29T01:58:18;8.80;99.90
530;DHT22;251;48.704;9.210;2023-04-29T02:01:03;8.50;99.90
530;DHT22;251;48.704;9.210;2023-04-29T02:03:32;8.60;99.90
530;DHT22;251;48.704;9.210;2023-04-29T02:06:01;8.60;99.90
530;DHT22;251;48.704;9.210;2023-04-29T02:08:29;8.30;99.90
530;DHT22;251;48.704;9.210;2023-04-29T02:10:58;8.60;99.90
530;DHT22;251;48.704;9.210;2023-04-29T02:13:36;8.50;99.90
530;DHT22;251;48.704;9.210;2023-04-29T02:16:07;8.40;99.90
530;DHT22;251;48.704;9.210;2023-04-29T02:18:36;8.40;99.90
530;DHT22;251;48.704;9.210;2023-04-29T02:21:04;8.40;99.90
530;DHT22;251;48.704;9.210;2023-04-29T02:23:33;8.40;99.90
530;DHT22;251;48.704;9.210;2023-04-29T02:26:01;8.10;99.90
530;DHT22;251;48.704;9.210;2023-04-29T02:28:31;8.10;99.90
530;DHT22;251;48.704;9.210;2023-04-29T02:30:58;8.20;99.90
530;DHT22;251;48.704;9.210;2023-04-29T02:33:25;8.40;99.90
530;DHT22;251;48.704;9.210;2023-04-29T02:35:52;8.40;99.90
530;DHT22;251;48.704;9.210;2023-04-29T02:38:19;8.40;99.90
530;DHT22;251;48.704;9.210;2023-04-29T02:40:46;8.50;99.90
530;DHT22;251;48.704;9.210;2023-04-29T02:43:15;8.10;99.90
530;DHT22;251;48.704;9.210;2023-04-29T02:45:44;8.40;99.90
530;DHT22;251;48.704;9.210;2023-04-29T02:48:10;8.40;99.90
530;DHT22;251;48.704;9.210;2023-04-29T02:50:37;8.20;99.90
530;DHT22;251;48.704;9.210;2023-04-29T02:53:04;8.10;99.90
530;DHT22;251;48.704;9.210;2023-04-29T02:55:31;8.10;99.90
530;DHT22;251;48.704;9.210;2023-04-29T02:58:04;8.30;99.90
530;DHT22;251;48.704;9.210;2023-04-29T03:00:32;8.00;99.90
530;DHT22;251;48.704;9.210;2023-04-29T03:02:59;7.90;99.90
530;DHT22;251;48.704;9.210;2023-04-29T03:05:27;8.10;99.90
530;DHT22;251;48.704;9.210;2023-04-29T03:07:55;8.10;99.90
530;DHT22;251;48.704;9.210;2023-04-29T03:10:23;8.10;99.90
530;DHT22;251;48.704;9.210;2023-04-29T03:12:50;8.00;99.90
530;DHT22;251;48.704;9.210;2023-04-29T03:15:17;7.70;99.90
530;DHT22;251;48.704;9.210;2023-04-29T03:17:46;8.00;99.90
530;DHT22;251;48.704;9.210;2023-04-29T03:20:13;7.70;99.90
530;DHT22;251;48.704;9.210;2023-04-29T03:22:39;7.90;99.90
530;DHT22;251;48.704;9.210;2023-04-29T03:25:07;7.80;99.90
530;DHT22;251;48.704;9.210;2023-04-29T03:27:35;7.70;99.90
530;DHT22;251;48.704;9.210;2023-04-29T03:30:04;7.80;99.90
530;DHT22;251;48.704;9.210;2023-04-29T03:32:31;7.60;99.90
530;DHT22;251;48.704;9.210;2023-04-29T03:35:00;7.70;99.90
530;DHT22;251;48.704;9.210;2023-04-29T03:37:43;7.70;99.90
530;DHT22;251;48.704;9.210;2023-04-29T03:40:18;7.30;99.90
530;DHT22;251;48.704;9.210;2023-04-29T03:42:44;7.60;99.90
530;DHT22;251;48.704;9.210;2023-04-29T03:45:11;7.70;99.90
530;DHT22;251;48.704;9.210;2023-04-29T03:47:39;7.70;99.90
530;DHT22;251;48.704;9.210;2023-04-29T03:50:08;7.20;99.90
530;DHT22;251;48.704;9.210;2023-04-29T03:52:35;7.20;99.90
530;DHT22;251;48.704;9.210;2023-04-29T03:55:06;7.20;99.90
530;DHT22;251;48.704;9.210;2023-04-29T03:57:33;7.20;99.90
530;DHT22;251;48.704;9.210;2023-04-29T04:00:00;7.40;99.90
530;DHT22;251;48.704;9.210;2023-04-29T04:02:27;7.40;99.90
530;DHT22;251;48.704;9.210;2023-04-29T04:04:54;7.00;99.90
530;DHT22;251;48.704;9.210;2023-04-29T04:07:22;7.20;99.90
530;DHT22;251;48.704;9.210;2023-04-29T04:10:22;6.90;99.90
530;DHT22;251;48.704;9.210;2023-04-29T04:12:48;7.40;99.90
530;DHT22;251;48.704;9.210;2023-04-29T04:15:15;6.90;99.90
530;DHT22;251;48.704;9.210;2023-04-29T04:17:42;7.20;99.90
530;DHT22;251;48.704;9.210;2023-04-29T04:20:10;7.00;99.90
530;DHT22;251;48.704;9.210;2023-04-29T04:22:39;6.90;99.90
530;DHT22;251;48.704;9.210;2023-04-29T04:25:32;7.10;99.90
530;DHT22;251;48.704;9.210;2023-04-29T04:28:12;6.90;99.90
530;DHT22;251;48.704;9.210;2023-04-29T04:30:53;7.30;99.90
530;DHT22;251;48.704;9.210;2023-04-29T04:33:19;7.00;99.90
530;DHT22;251;48.704;9.210;2023-04-29T04:35:47;7.00;99.90
530;DHT22;251;48.704;9.210;2023-04-29T04:38:15;7.20;99.90
530;DHT22;251;48.704;9.210;2023-04-29T04:40:42;6.90;99.90
530;DHT22;251;48.704;9.210;2023-04-29T04:43:24;7.20;99.90
530;DHT22;251;48.704;9.210;2023-04-29T04:45:50;7.30;99.90
530;DHT22;251;48.704;9.210;2023-04-29T04:48:18;7.00;99.90
530;DHT22;251;48.704;9.210;2023-04-29T04:50:48;7.10;99.90
530;DHT22;251;48.704;9.210;2023-04-29T04:53:16;7.20;99.90
530;DHT22;251;48.704;9.210;2023-04-29T04:55:50;7.20;99.90
530;DHT22;251;48.704;9.210;2023-04-29T04:58:17;7.20;99.90
530;DHT22;251;48.704;9.210;2023-04-29T05:00:44;7.70;99.90
530;DHT22;251;48.704;9.210;2023-04-29T05:03:11;7.70;99.90
530;DHT22;251;48.704;9.210;2023-04-29T05:05:38;7.70;99.90
530;DHT22;251;48.704;9.210;2023-04-29T05:08:05;7.50;99.90
530;DHT22;251;48.704;9.210;2023-04-29T05:10:44;8.10;99.90
530;DHT22;251;48.704;9.210;2023-04-29T05:13:11;8.10;99.90
530;DHT22;251;48.704;9.210;2023-04-29T05:15:39;8.20;99.90
530;DHT22;251;48.704;9.210;2023-04-29T05:18:07;7.90;99.90
530;DHT22;251;48.704;9.210;2023-04-29T05:20:34;8.10;99.90
530;DHT22;251;48.704;9.210;2023-04-29T05:23:01;8.40;99.90
530;DHT22;251;48.704;9.210;2023-04-29T05:25:31;8.50;99.90
530;DHT22;251;48.704;9.210;2023-04-29T05:28:01;8.50;99.90
530;DHT22;251;48.704;9.210;2023-04-29T05:30:30;8.40;99.90
530;DHT22;251;48.704;9.210;2023-04-29T05:32:57;8.60;99.90
530;DHT22;251;48.704;9.210;2023-04-29T05:35:24;8.40;99.90
530;DHT22;251;48.704;9.210;2023-04-29T05:37:51;8.50;99.90
530;DHT22;251;48.704;9.210;2023-04-29T05:40:38;8.80;99.90
530;DHT22;251;48.704;9.210;2023-04-29T05:43:25;8.90;99.90
530;DHT22;251;48.704;9.210;2023-04-29T05:45:52;8.80;99.90
530;DHT22;251;48.704;9.210;2023-04-29T05:48:19;9.20;99.90
530;DHT22;251;48.704;9.210;2023-04-29T05:50:46;9.20;99.90
530;DHT22;251;48.704;9.210;2023-04-29T05:53:13;9.60;99.90
530;DHT22;251;48.704;9.210;2023-04-29T05:55:41;9.70;99.90
530;DHT22;251;48.704;9.210;2023-04-29T05:58:09;10.30;99.90
530;DHT22;251;48.704;9.210;2023-04-29T06:00:38;10.30;99.90
530;DHT22;251;48.704;9.210;2023-04-29T06:03:11;10.10;99.90
530;DHT22;251;48.704;9.210;2023-04-29T06:05:39;10.40;99.90
530;DHT22;251;48.704;9.210;2023-04-29T06:08:17;10.80;99.90
530;DHT22;251;48.704;9.210;2023-04-29T06:10:52;10.70;99.90
530;DHT22;251;48.704;9.210;2023-04-29T06:13:19;11.10;99.90
530;DHT22;251;48.704;9.210;2023-04-29T06:15:49;11.20;99.90
530;DHT22;251;48.704;9.210;2023-04-29T06:18:16;11.50;99.90
530;DHT22;251;48.704;9.210;2023-04-29T06:20:43;11.90;99.90
530;DHT22;251;48.704;9.210;2023-04-29T06:23:10;12.00;99.90
530;DHT22;251;48.704;9.210;2023-04-29T06:25:37;12.20;99.90
530;DHT22;251;48.704;9.210;2023-04-29T06:28:06;12.70;99.90
530;DHT22;251;48.704;9.210;2023-04-29T06:30:33;13.00;97.10
530;DHT22;251;48.704;9.210;2023-04-29T06:33:01;12.90;90.50
530;DHT22;251;48.704;9.210;2023-04-29T06:35:28;13.10;87.70
530;DHT22;251;48.704;9.210;2023-04-29T06:38:14;13.30;81.60
530;DHT22;251;48.704;9.210;2023-04-29T06:40:53;13.30;76.80
530;DHT22;251;48.704;9.210;2023-04-29T06:43:38;13.10;73.20
530;DHT22;251;48.704;9.210;2023-04-29T06:46:26;13.30;73.40
530;DHT22;251;48.704;9.210;2023-04-29T06:49:03;13.70;72.20
530;DHT22;251;48.704;9.210;2023-04-29T06:51:32;13.40;69.90
530;DHT22;251;48.704;9.210;2023-04-29T06:54:00;13.60;68.70
530;DHT22;251;48.704;9.210;2023-04-29T06:56:27;13.40;67.80
530;DHT22;251;48.704;9.210;2023-04-29T06:58:53;13.50;66.30
530;DHT22;251;48.704;9.210;2023-04-29T07:01:20;13.60;66.60
530;DHT22;251;48.704;9.210;2023-04-29T07:03:49;13.50;66.70
530;DHT22;251;48.704;9.210;2023-04-29T07:06:19;14.00;66.50
530;DHT22;251;48.704;9.210;2023-04-29T07:08:46;14.10;64.20
530;DHT22;251;48.704;9.210;2023-04-29T07:11:14;14.20;61.40
530;DHT22;251;48.704;9.210;2023-04-29T07:13:41;14.00;55.10
530;DHT22;251;48.704;9.210;2023-04-29T07:16:14;14.20;55.20
530;DHT22;251;48.704;9.210;2023-04-29T07:18:41;14.20;53.00
530;DHT22;251;48.704;9.210;2023-04-29T07:21:08;14.00;55.40
530;DHT22;251;48.704;9.210;2023-04-29T07:23:36;14.20;56.90
530;DHT22;251;48.704;9.210;2023-04-29T07:26:08;14.00;52.90
530;DHT22;251;48.704;9.210;2023-04-29T07:28:35;14.30;49.20
530;DHT22;251;48.704;9.210;2023-04-29T07:31:02;14.60;53.70
530;DHT22;251;48.704;9.210;2023-04-29T07:33:29;14.50;52.00
530;DHT22;251;48.704;9.210;2023-04-29T07:35:55;14.60;47.40
530;DHT22;251;48.704;9.210;2023-04-29T07:38:22;14.60;49.90
530;DHT22;251;48.704;9.210;2023-04-29T07:40:51;14.80;48.60
530;DHT22;251;48.704;9.210;2023-04-29T07:43:18;14.70;46.50
530;DHT22;251;48.704;9.210;2023-04-29T07:45:46;15.00;44.90
530;DHT22;251;48.704;9.210;2023-04-29T07:48:13;15.30;46.30
530;DHT22;251;48.704;9.210;2023-04-29T07:50:40;15.40;43.40
530;DHT22;251;48.704;9.210;2023-04-29T07:53:08;15.60;38.80
530;DHT22;251;48.704;9.210;2023-04-29T07:55:36;15.70;39.90
530;DHT22;251;48.704;9.210;2023-04-29T07:58:05;15.80;42.00
530;DHT22;251;48.704;9.210;2023-04-29T08:00:32;15.90;40.20
530;DHT22;251;48.704;9.210;2023-04-29T08:02:59;15.70;40.00
530;DHT22;251;48.704;9.210;2023-04-29T08:05:26;15.60;37.80
530;DHT22;251;48.704;9.210;2023-04-29T08:07:55;15.60;38.90
530;DHT22;251;48.704;9.210;2023-04-29T08:10:24;15.80;39.70
530;DHT22;251;48.704;9.210;2023-04-29T08:12:51;15.80;37.20
530;DHT22;251;48.704;9.210;2023-04-29T08:15:19;15.40;35.90
530;DHT22;251;48.704;9.210;2023-04-29T08:17:46;15.60;36.30
530;DHT22;251;48.704;9.210;2023-04-29T08:20:13;15.80;37.30
530;DHT22;251;48.704;9.210;2023-04-29T08:22:40;15.90;37.80
530;DHT22;251;48.704;9.210;2023-04-29T08:25:08;16.00;35.20
530;DHT22;251;48.704;9.210;2023-04-29T08:27:35;16.10;35.10
530;DHT22;251;48.704;9.210;2023-04-29T08:30:02;16.30;32.70
530;DHT22;251;48.704;9.210;2023-04-29T08:32:30;16.40;32.40
530;DHT22;251;48.704;9.210;2023-04-29T08:34:59;16.30;34.00
530;DHT22;251;48.704;9.210;2023-04-29T08:37:26;16.50;32.30
530;DHT22;251;48.704;9.210;2023-04-29T08:39:53;16.60;33.30
530;DHT22;251;48.704;9.210;2023-04-29T08:42:31;16.60;33.50
530;DHT22;251;48.704;9.210;2023-04-29T08:44:59;16.60;29.70
530;DHT22;251;48.704;9.210;2023-04-29T08:47:26;16.90;28.70
530;DHT22;251;48.704;9.210;2023-04-29T08:49:57;16.80;26.80
530;DHT22;251;48.704;9.210;2023-04-29T08:52:27;17.00;27.00
530;DHT22;251;48.704;9.210;2023-04-29T08:54:54;16.80;25.10
530;DHT22;251;48.704;9.210;2023-04-29T08:57:22;17.10;25.60
530;DHT22;251;48.704;9.210;2023-04-29T08:59:50;17.10;25.10
530;DHT22;251;48.704;9.210;2023-04-29T09:02:18;17.10;25.60
530;DHT22;251;48.704;9.210;2023-04-29T09:04:54;17.10;25.40
530;DHT22;251;48.704;9.210;2023-04-29T09:07:22;17.20;25.00
530;DHT22;251;48.704;9.210;2023-04-29T09:09:50;17.30;24.80
530;DHT22;251;48.704;9.210;2023-04-29T09:12:18;17.50;25.10
530;DHT22;251;48.704;9.210;2023-04-29T09:14:45;17.60;24.20
530;DHT22;251;48.704;9.210;2023-04-29T09:17:12;17.80;24.10
530;DHT22;251;48.704;9.210;2023-04-29T09:19:40;18.00;24.70
530;DHT22;251;48.704;9.210;2023-04-29T09:22:08;18.20;23.70
530;DHT22;251;48.704;9.210;2023-04-29T09:24:37;18.30;23.50
530;DHT22;251;48.704;9.210;2023-04-29T09:27:04;18.40;23.10
530;DHT22;251;48.704;9.210;2023-04-29T09:29:31;18.50;23.00
530;DHT22;251;48.704;9.210;2023-04-29T09:31:59;18.50;23.40
530;DHT22;251;48.704;9.210;2023-04-29T09:34:33;18.50;24.40
530;DHT22;251;48.704;9.210;2023-04-29T09:37:02;18.60;24.70
530;DHT22;251;48.704;9.210;2023-04-29T09:39:39;18.70;24.90
530;DHT22;251;48.704;9.210;2023-04-29T09:42:05;18.80;24.30
530;DHT22;251;48.704;9.210;2023-04-29T09:44:34;18.90;23.70
530;DHT22;251;48.704;9.210;2023-04-29T09:47:02;19.10;24.10
530;DHT22;251;48.704;9.210;2023-04-29T09:49:30;19.10;23.70
530;DHT22;251;48.704;9.210;2023-04-29T09:52:01;18.90;22.30
530;DHT22;251;48.704;9.210;2023-04-29T09:54:30;19.10;23.00
530;DHT22;251;48.704;9.210;2023-04-29T09:56:59;19.20;21.90
530;DHT22;251;48.704;9.210;2023-04-29T09:59:27;19.50;22.10
530;DHT22;251;48.704;9.210;2023-04-29T10:01:55;19.70;21.50
530;DHT22;251;48.704;9.210;2023-04-29T10:04:23;19.80;20.40
530;DHT22;251;48.704;9.210;2023-04-29T10:06:52;20.30;21.90
530;DHT22;251;48.704;9.210;2023-04-29T10:09:21;20.70;19.70
530;DHT22;251;48.704;9.210;2023-04-29T10:11:49;20.90;19.30
530;DHT22;251;48.704;9.210;2023-04-29T10:14:19;20.80;19.40
530;DHT22;251;48.704;9.210;2023-04-29T10:16:47;20.40;19.30
530;DHT22;251;48.704;9.210;2023-04-29T10:19:20;20.30;19.60
530;DHT22;251;48.704;9.210;2023-04-29T10:21:50;20.00;19.00
530;DHT22;251;48.704;9.210;2023-04-29T10:24:17;20.00;20.50
530;DHT22;251;48.704;9.210;2023-04-29T10:26:46;19.90;18.90
530;DHT22;251;48.704;9.210;2023-04-29T10:29:13;20.10;19.80
530;DHT22;251;48.704;9.210;2023-04-29T10:31:42;20.20;20.40
530;DHT22;251;48.704;9.210;2023-04-29T10:34:11;20.20;19.10
530;DHT22;251;48.704;9.210;2023-04-29T10:36:39;19.70;16.50
530;DHT22;251;48.704;9.210;2023-04-29T10:39:11;19.60;17.90
530;DHT22;251;48.704;9.210;2023-04-29T10:41:43;19.80;18.60
530;DHT22;251;48.704;9.210;2023-04-29T10:44:11;20.50;19.00
530;DHT22;251;48.704;9.210;2023-04-29T10:46:39;21.40;17.70
530;DHT22;251;48.704;9.210;2023-04-29T10:49:07;22.20;13.90
530;DHT22;251;48.704;9.210;2023-04-29T10:51:39;22.40;13.00
530;DHT22;251;48.704;9.210;2023-04-29T10:54:08;21.90;14.30
530;DHT22;251;48.704;9.210;2023-04-29T10:56:36;21.40;13.20
530;DHT22;251;48.704;9.210;2023-04-29T10:59:03;20.70;13.60
530;DHT22;251;48.704;9.210;2023-04-29T11:01:41;20.50;15.00
530;DHT22;251;48.704;9.210;2023-04-29T11:04:09;20.10;17.00
530;DHT22;251;48.704;9.210;2023-04-29T11:06:39;20.00;16.40
530;DHT22;251;48.704;9.210;2023-04-29T11:09:11;19.70;16.90
530;DHT22;251;48.704;9.210;2023-04-29T11:11:56;19.50;16.10
530;DHT22;251;48.704;9.210;2023-04-29T11:14:24;19.60;17.60
530;DHT22;251;48.704;9.210;2023-04-29T11:16:53;19.80;16.70
530;DHT22;251;48.704;9.210;2023-04-29T11:19:23;20.60;15.30
530;DHT22;251;48.704;9.210;2023-04-29T11:22:06;21.10;15.10
530;DHT22;251;48.704;9.210;2023-04-29T11:24:34;21.10;14.10
530;DHT22;251;48.704;9.210;2023-04-29T11:27:01;20.70;13.00
530;DHT22;251;48.704;9.210;2023-04-29T11:29:30;21.30;14.50
530;DHT22;251;48.704;9.210;2023-04-29T11:32:00;21.70;13.10
530;DHT22;251;48.704;9.210;2023-04-29T11:34:29;22.50;11.90
530;DHT22;251;48.704;9.210;2023-04-29T11:36:56;22.80;11.50
530;DHT22;251;48.704;9.210;2023-04-29T11:39:23;22.50;10.80
530;DHT22;251;48.704;9.210;2023-04-29T11:41:49;22.70;11.30
530;DHT22;251;48.704;9.210;2023-04-29T11:44:20;23.00;10.40
530;DHT22;251;48.704;9.210;2023-04-29T11:46:48;22.90;9.90
530;DHT22;251;48.704;9.210;2023-04-29T11:49:15;23.40;10.70
530;DHT22;251;48.704;9.210;2023-04-29T11:51:43;24.10;9.00
530;DHT22;251;48.704;9.210;2023-04-29T11:54:10;24.60;8.40
530;DHT22;251;48.704;9.210;2023-04-29T11:56:37;25.00;7.00
530;DHT22;251;48.704;9.210;2023-04-29T11:59:05;24.40;5.20
530;DHT22;251;48.704;9.210;2023-04-29T12:01:32;23.90;6.50
530;DHT22;251;48.704;9.210;2023-04-29T12:04:00;23.60;7.30
530;DHT22;251;48.704;9.210;2023-04-29T12:06:28;23.20;6.50
530;DHT22;251;48.704;9.210;2023-04-29T12:08:59;23.90;7.20
530;DHT22;251;48.704;9.210;2023-04-29T12:11:29;24.50;6.60
530;DHT22;251;48.704;9.210;2023-04-29T12:13:56;25.40;4.30
530;DHT22;251;48.704;9.210;2023-04-29T12:16:23;25.60;3.50
530;DHT22;251;48.704;9.210;2023-04-29T12:18:51;26.40;1.80
530;DHT22;251;48.704;9.210;2023-04-29T12:21:18;27.10;3.00
530;DHT22;251;48.704;9.210;2023-04-29T12:23:45;27.30;2.80
530;DHT22;251;48.704;9.210;2023-04-29T12:26:13;26.80;3.10
530;DHT22;251;48.704;9.210;2023-04-29T12:28:40;26.50;4.70
530;DHT22;251;48.704;9.210;2023-04-29T12:31:08;26.30;4.00
530;DHT22;251;48.704;9.210;2023-04-29T12:33:35;25.60;4.30
530;DHT22;251;48.704;9.210;2023-04-29T12:36:03;25.10;6.30
530;DHT22;251;48.704;9.210;2023-04-29T12:38:30;24.40;7.00
530;DHT22;251;48.704;9.210;2023-04-29T12:40:59;23.60;7.50
530;DHT22;251;48.704;9.210;2023-04-29T12:43:28;23.20;8.60
530;DHT22;251;48.704;9.210;2023-04-29T12:45:59;22.40;7.40
530;DHT22;251;48.704;9.210;2023-04-29T12:48:29;22.20;9.60
530;DHT22;251;48.704;9.210;2023-04-29T12:50:57;22.80;10.90
530;DHT22;251;48.704;9.210;2023-04-29T12:53:24;23.00;9.20
530;DHT22;251;48.704;9.210;2023-04-29T12:55:52;23.20;8.90
530;DHT22;251;48.704;9.210;2023-04-29T12:58:19;23.70;8.20
530;DHT22;251;48.704;9.210;2023-04-29T13:00:48;23.80;8.20
530;DHT22;251;48.704;9.210;2023-04-29T13:03:15;24.80;7.30
530;DHT22;251;48.704;9.210;2023-04-29T13:05:42;25.80;4.80
530;DHT22;251;48.704;9.210;2023-04-29T13:08:09;26.80;3.70
530;DHT22;251;48.704;9.210;2023-04-29T13:10:36;27.40;2.10
530;DHT22;251;48.704;9.210;2023-04-29T13:13:02;27.40;1.00
530;DHT22;251;48.704;9.210;2023-04-29T13:15:29;27.50;1.80
530;DHT22;251;48.704;9.210;2023-04-29T13:17:59;27.30;1.20
530;DHT22;251;48.704;9.210;2023-04-29T13:20:26;27.40;1.30
530;DHT22;251;48.704;9.210;2023-04-29T13:22:53;27.60;1.40
530;DHT22;251;48.704;9.210;2023-04-29T13:25:19;27.70;1.50
530;DHT22;251;48.704;9.210;2023-04-29T13:27:46;27.80;1.50
530;DHT22;251;48.704;9.210;2023-04-29T13:30:14;27.80;1.00
530;DHT22;251;48.704;9.210;2023-04-29T13:32:41;27.60;1.00
530;DHT22;251;48.704;9.210;2023-04-29T13:35:10;27.70;1.00
530;DHT22;251;48.704;9.210;2023-04-29T13:37:37;27.40;1.00
530;DHT22;251;48.704;9.210;2023-04-29T13:40:06;27.50;1.00
530;DHT22;251;48.704;9.210;2023-04-29T13:42:33;28.10;1.00
530;DHT22;251;48.704;9.210;2023-04-29T13:44:59;28.40;1.00
530;DHT22;251;48.704;9.210;2023-04-29T13:47:26;28.20;1.00
530;DHT22;251;48.704;9.210;2023-04-29T13:49:53;28.00;1.00
530;DHT22;251;48.704;9.210;2023-04-29T13:52:22;28.10;1.00
530;DHT22;251;48.704;9.210;2023-04-29T13:54:49;27.80;1.00
530;DHT22;251;48.704;9.210;2023-04-29T13:57:16;28.10;1.00
530;DHT22;251;48.704;9.210;2023-04-29T13:59:44;28.10;1.00
530;DHT22;251;48.704;9.210;2023-04-29T14:02:10;28.30;1.00
530;DHT22;251;48.704;9.210;2023-04-29T14:04:38;28.40;1.00
530;DHT22;251;48.704;9.210;2023-04-29T14:07:05;27.70;1.00
530;DHT22;251;48.704;9.210;2023-04-29T14:09:33;25.70;1.00
530;DHT22;251;48.704;9.210;2023-04-29T14:12:00;25.80;1.50
530;DHT22;251;48.704;9.210;2023-04-29T14:14:27;25.40;3.70
530;DHT22;251;48.704;9.210;2023-04-29T14:16:53;25.60;3.00
530;DHT22;251;48.704;9.210;2023-04-29T14:19:20;25.30;3.00
530;DHT22;251;48.704;9.210;2023-04-29T14:21:47;24.60;3.30
530;DHT22;251;48.704;9.210;2023-04-29T14:24:14;23.90;5.00
530;DHT22;251;48.704;9.210;2023-04-29T14:26:43;23.10;6.00
530;DHT22;251;48.704;9.210;2023-04-29T14:29:10;22.70;7.80
530;DHT22;251;48.704;9.210;2023-04-29T14:31:37;22.10;7.70
530;DHT22;251;48.704;9.210;2023-04-29T14:34:04;22.30;8.30
530;DHT22;251;48.704;9.210;2023-04-29T14:36:31;22.60;7.60
530;DHT22;251;48.704;9.210;2023-04-29T14:38:58;23.20;7.40
530;DHT22;251;48.704;9.210;2023-04-29T14:41:25;23.90;6.70
530;DHT22;251;48.704;9.210;2023-04-29T14:43:53;24.40;5.40
530;DHT22;251;48.704;9.210;2023-04-29T14:46:20;24.80;4.00
530;DHT22;251;48.704;9.210;2023-04-29T14:48:48;24.90;4.50
530;DHT22;251;48.704;9.210;2023-04-29T14:51:15;24.40;5.20
530;DHT22;251;48.704;9.210;2023-04-29T14:53:42;23.60;6.40
530;DHT22;251;48.704;9.210;2023-04-29T14:56:09;23.00;7.60
530;DHT22;251;48.704;9.210;2023-04-29T14:58:35;22.30;8.50
530;DHT22;251;48.704;9.210;2023-04-29T15:01:04;22.10;10.30
530;DHT22;251;48.704;9.210;2023-04-29T15:03:30;21.00;10.00
530;DHT22;251;48.704;9.210;2023-04-29T15:05:57;20.80;12.00
530;DHT22;251;48.704;9.210;2023-04-29T15:08:26;20.10;12.00
530;DHT22;251;48.704;9.210;2023-04-29T15:10:53;20.10;12.50
530;DHT22;251;48.704;9.210;2023-04-29T15:13:20;20.10;12.60
530;DHT22;251;48.704;9.210;2023-04-29T15:15:47;20.20;13.90
530;DHT22;251;48.704;9.210;2023-04-29T15:18:16;20.20;12.60
530;DHT22;251;48.704;9.210;2023-04-29T15:20:43;19.90;12.50
530;DHT22;251;48.704;9.210;2023-04-29T15:23:11;19.90;13.10
530;DHT22;251;48.704;9.210;2023-04-29T15:25:38;19.80;13.60
530;DHT22;251;48.704;9.210;2023-04-29T15:28:05;20.30;12.30
530;DHT22;251;48.704;9.210;2023-04-29T15:30:32;20.00;12.00
530;DHT22;251;48.704;9.210;2023-04-29T15:33:00;20.10;12.50
530;DHT22;251;48.704;9.210;2023-04-29T15:35:28;20.30;12.70
530;DHT22;251;48.704;9.210;2023-04-29T15:37:55;20.30;11.90
530;DHT22;251;48.704;9.210;2023-04-29T15:40:23;19.60;12.20
530;DHT22;251;48.704;9.210;2023-04-29T15:42:50;19.50;12.90
530;DHT22;251;48.704;9.210;2023-04-29T15:45:17;19.80;12.90
530;DHT22;251;48.704;9.210;2023-04-29T15:47:44;19.60;12.50
530;DHT22;251;48.704;9.210;2023-04-29T15:50:11;19.50;13.40
530;DHT22;251;48.704;9.210;2023-04-29T15:52:39;19.80;13.70
530;DHT22;251;48.704;9.210;2023-04-29T15:55:07;19.80;12.50
530;DHT22;251;48.704;9.210;2023-04-29T15:57:34;19.50;13.10
530;DHT22;251;48.704;9.210;2023-04-29T16:00:06;19.50;14.00
530;DHT22;251;48.704;9.210;2023-04-29T16:02:34;19.00;13.90
530;DHT22;251;48.704;9.210;2023-04-29T16:05:01;19.10;14.50
530;DHT22;251;48.704;9.210;2023-04-29T16:07:27;18.70;14.70
530;DHT22;251;48.704;9.210;2023-04-29T16:09:56;18.50;14.70
530;DHT22;251;48.704;9.210;2023-04-29T16:12:23;18.30;14.90
530;DHT22;251;48.704;9.210;2023-04-29T16:14:50;18.20;15.30
530;DHT22;251;48.704;9.210;2023-04-29T16:17:17;18.20;15.70
530;DHT22;251;48.704;9.210;2023-04-29T16:19:44;18.30;16.20
530;DHT22;251;48.704;9.210;2023-04-29T16:22:11;18.50;15.90
530;DHT22;251;48.704;9.210;2023-04-29T16:24:37;18.50;15.60
530;DHT22;251;48.704;9.210;2023-04-29T16:27:05;18.30;15.80
530;DHT22;251;48.704;9.210;2023-04-29T16:29:32;17.90;15.80
530;DHT22;251;48.704;9.210;2023-04-29T16:31:59;18.00;16.80
530;DHT22;251;48.704;9.210;2023-04-29T16:34:26;18.00;17.00
530;DHT22;251;48.704;9.210;2023-04-29T16:36:53;18.00;16.80
530;DHT22;251;48.704;9.210;2023-04-29T16:39:19;18.00;17.80
530;DHT22;251;48.704;9.210;2023-04-29T16:41:46;17.80;17.50
530;DHT22;251;48.704;9.210;2023-04-29T16:44:14;17.60;17.70
530;DHT22;251;48.704;9.210;2023-04-29T16:46:41;17.30;17.80
530;DHT22;251;48.704;9.210;2023-04-29T16:49:08;17.20;18.50
530;DHT22;251;48.704;9.210;2023-04-29T16:51:36;17.10;19.60
530;DHT22;251;48.704;9.210;2023-04-29T16:54:03;17.20;18.80